createdAt,value
2019-05-26T00:00:47.497Z,77.62
2019-05-26T00:10:52.219Z,78.79
2019-05-26T00:20:56.879Z,79.12
2019-05-26T00:31:01.453Z,79.10
2019-05-26T00:41:06.180Z,78.71
2019-05-26T00:51:10.816Z,78.61
2019-05-26T01:01:15.198Z,78.37
2019-05-26T01:11:19.627Z,78.06
2019-05-26T01:21:24.092Z,77.93
2019-05-26T01:31:28.705Z,77.85
2019-05-26T01:41:33.105Z,77.55
2019-05-26T01:51:37.897Z,77.02
2019-05-26T02:01:42.638Z,76.76
2019-05-26T02:11:47.156Z,76.75
2019-05-26T02:21:51.519Z,76.52
2019-05-26T02:31:55.916Z,76.57
2019-05-26T02:42:00.379Z,76.54
2019-05-26T02:52:05.135Z,76.32
2019-05-26T03:02:09.986Z,76.85
2019-05-26T03:12:16.274Z,76.85
2019-05-26T03:22:20.707Z,77.26
2019-05-26T03:32:25.270Z,77.72
2019-05-26T03:42:29.612Z,77.68
2019-05-26T03:52:34.377Z,77.96
2019-05-26T04:02:38.758Z,78.08
2019-05-26T04:12:43.191Z,78.22
2019-05-26T04:22:47.921Z,78.45
2019-05-26T04:32:53.309Z,78.84
2019-05-26T04:42:57.767Z,79.71
2019-05-26T04:53:06.615Z,80.27
2019-05-26T05:03:09.855Z,80.93
2019-05-26T05:13:14.334Z,80.73
2019-05-26T05:23:19.643Z,80.47
2019-05-26T05:33:24.256Z,79.43
2019-05-26T05:43:28.904Z,78.71
2019-05-26T05:53:33.337Z,77.98
2019-05-26T06:03:37.688Z,77.32
2019-05-26T06:13:42.426Z,76.61
2019-05-26T06:23:47.106Z,76.11
2019-05-26T06:33:51.522Z,74.31
2019-05-26T06:43:55.897Z,71.51
2019-05-26T06:54:00.593Z,71.39
2019-05-26T07:04:05.356Z,70.42
2019-05-26T07:24:55.240Z,68.27
2019-05-26T07:34:59.943Z,67.06
2019-05-26T07:45:05.385Z,67.90
2019-05-26T07:55:10.424Z,66.30
2019-05-26T08:05:15.141Z,65.07
2019-05-26T08:15:19.720Z,64.93
2019-05-26T08:25:24.110Z,63.72
2019-05-26T08:35:28.538Z,62.61
2019-05-26T08:45:33.258Z,61.55
2019-05-26T08:55:37.694Z,60.41
2019-05-26T09:05:42.369Z,59.83
2019-05-26T09:15:47.434Z,59.40
2019-05-26T09:25:54.515Z,57.75
2019-05-26T09:35:59.122Z,56.83
2019-05-26T09:46:03.512Z,56.29
2019-05-26T09:56:07.944Z,58.32
2019-05-26T10:06:12.381Z,56.10
2019-05-26T10:16:16.839Z,56.78
2019-05-26T10:26:21.279Z,53.85
2019-05-26T10:36:25.910Z,50.75
2019-05-26T10:46:31.475Z,52.48
2019-05-26T10:56:37.959Z,52.00
2019-05-26T11:06:42.815Z,50.22
2019-05-26T11:16:47.295Z,49.88
2019-05-26T11:26:51.771Z,48.73
2019-05-26T11:36:56.348Z,46.48
2019-05-26T11:47:00.883Z,45.93
2019-05-26T11:57:05.506Z,48.92
2019-05-26T12:07:10.432Z,47.04
2019-05-26T12:17:15.014Z,46.16
2019-05-26T12:27:19.707Z,46.99
2019-05-26T12:37:24.489Z,42.97
2019-05-26T12:47:31.170Z,41.25
2019-05-26T12:57:35.699Z,40.33
2019-05-26T13:07:40.419Z,34.90
2019-05-26T13:17:44.825Z,32.00
2019-05-26T13:27:50.524Z,25.21
2019-05-26T13:37:55.094Z,19.70
2019-05-26T13:47:59.682Z,19.20
2019-05-26T13:58:06.396Z,17.56
2019-05-26T14:08:11.005Z,17.15
2019-05-26T14:18:18.124Z,18.07
2019-05-26T14:28:22.445Z,16.52
2019-05-26T14:38:42.276Z,16.20
2019-05-26T14:48:33.753Z,16.24
2019-05-26T14:58:40.642Z,19.22
2019-05-26T15:08:45.090Z,23.60
2019-05-26T15:18:50.101Z,27.72
2019-05-26T15:29:10.513Z,32.81
2019-05-26T15:39:15.183Z,38.49
2019-05-26T15:49:19.899Z,42.70
2019-05-26T15:59:24.316Z,44.05
2019-05-26T16:09:29.003Z,48.44
2019-05-26T16:19:34.860Z,48.36
2019-05-26T16:29:39.761Z,45.23
2019-05-26T16:39:44.520Z,47.87
2019-05-26T16:49:49.475Z,46.67
2019-05-26T16:59:55.214Z,47.82
2019-05-26T17:09:59.994Z,50.77
2019-05-26T17:20:09.886Z,53.45
2019-05-26T17:30:14.954Z,54.46
2019-05-26T17:40:22.697Z,56.35
2019-05-26T17:50:27.784Z,57.98
2019-05-26T18:00:33.566Z,59.37
2019-05-26T18:10:38.430Z,60.99
2019-05-26T18:20:44.432Z,62.29
2019-05-26T18:30:49.989Z,63.75
2019-05-26T18:40:54.984Z,64.55
2019-05-26T18:51:01.877Z,65.74
2019-05-26T19:01:08.844Z,66.14
2019-05-26T19:11:13.831Z,66.49
2019-05-26T19:21:19.760Z,67.18
2019-05-26T19:31:24.123Z,67.27
2019-05-26T19:41:31.128Z,67.53
2019-05-26T19:51:36.650Z,68.91
2019-05-26T20:01:42.711Z,69.97
2019-05-26T20:11:47.359Z,69.51
2019-05-26T20:22:02.299Z,69.83
2019-05-26T20:32:06.853Z,71.35
2019-05-26T20:42:14.782Z,71.56
2019-05-26T20:52:22.455Z,72.81
2019-05-26T21:02:26.934Z,73.87
2019-05-26T21:12:32.508Z,74.71
2019-05-26T21:22:40.706Z,75.19
2019-05-26T21:32:45.083Z,75.41
2019-05-26T21:42:49.456Z,75.86
2019-05-26T21:52:53.877Z,75.88
2019-05-26T22:03:00.066Z,76.60
2019-05-26T22:13:04.567Z,76.87
2019-05-26T22:23:09.269Z,77.52
2019-05-26T22:33:13.798Z,78.14
2019-05-26T22:43:18.421Z,78.20
2019-05-26T22:53:23.173Z,77.95
2019-05-26T23:03:28.237Z,78.58
2019-05-26T23:13:32.772Z,78.46
2019-05-26T23:23:37.238Z,78.85
2019-05-26T23:33:41.606Z,79.11
2019-05-26T23:43:46.495Z,80.46
2019-05-26T23:53:50.919Z,81.03
